Airfield :
LOGIN :

Register | Disclaimer

   EN    FR    IT 

 










Legend :    VFR   Marginal VFR   IFR   Intensive IFR   Very Intensive IFR
Visi :
Ceiling :
>= 8 km
>= 3000ft
5 to 8 km
1000 to 3000 ft
1500m to 5 km
500 to 1000 ft
800 to 1500m
200 to 500 ft
< 800m
< 200 ft
Symbols :   Thunderstorms  Fog  Heavy snow  Heavy precipitations  Wind > 20 kt
SIGMETs :     Misc.  Thunderstorms  Icing  Turbulence  Mountain Waves  Volcanic Ashes







- Airport Elevation : 1046 ft
- IATA code : NUE


EDDN - Nuremberg

CURRENT METAR :
  • 242150Z 35005KT 9999 BKN038 15/08 Q1020

EXPIRED METARs :
  • 242120Z 35009KT 9999 BKN040 15/07 Q1020
  • 242050Z 35010KT 9999 BKN040 BKN060 16/07 Q1020
  • 242020Z 34008KT 9999 SCT045 BKN060 16/08 Q1020
  • 241950Z 35007KT 320V020 9999 SCT045 BKN060 17/08 Q1019 NOSIG
  • 241920Z 32009KT 300V360 9999 FEW045 SCT060 BKN090 17/07 Q1019 NOSIG

TAF TAF EDDN
Valid from the 24 at 18:00 until the 25 at 18:00 UTC


241700Z 2418/2518 33004KT 9999 BKN040
TEMPO 2503/2507 BKN012
BECMG 2510/2512 31010KT
No reported NOTAMs for that airfield.



MET'MAP, your aeronautical weather chart ! - Copyright ORBIFLY December 2007 - Disclaimer

ORBIFLY MET'MAP TEAM :

Programming & Development : Alexandra Zaïnal
Concept & Development : Baudouin d'Aumeries
Co-Development & Prog : Marc-Olivier Méhu
Technical & hardware support : Manuel Goepfert

Contact : metmap@orbifly.com




SOURCES & CREDITS :

   NOAA